sensor_id;sensor_type;location;lat;lon;timestamp;temperature;humidity
61253;DHT22;47127;47.516;8.596;2023-07-16T00:00:44;20.50;99.90
61253;DHT22;47127;47.516;8.596;2023-07-16T00:03:10;20.30;99.90
61253;DHT22;47127;47.516;8.596;2023-07-16T00:05:36;20.40;99.90
61253;DHT22;47127;47.516;8.596;2023-07-16T00:08:03;20.30;99.90
61253;DHT22;47127;47.516;8.596;2023-07-16T00:10:29;20.10;99.90
61253;DHT22;47127;47.516;8.596;2023-07-16T00:12:54;19.80;99.90
61253;DHT22;47127;47.516;8.596;2023-07-16T00:15:20;19.70;99.90
61253;DHT22;47127;47.516;8.596;2023-07-16T00:17:46;19.50;99.90
61253;DHT22;47127;47.516;8.596;2023-07-16T00:20:11;19.40;99.90
61253;DHT22;47127;47.516;8.596;2023-07-16T00:22:37;19.10;99.90
61253;DHT22;47127;47.516;8.596;2023-07-16T00:25:05;19.00;99.90
61253;DHT22;47127;47.516;8.596;2023-07-16T00:27:31;18.90;99.90
61253;DHT22;47127;47.516;8.596;2023-07-16T00:29:56;18.80;99.90
61253;DHT22;47127;47.516;8.596;2023-07-16T00:32:22;18.90;99.90
61253;DHT22;47127;47.516;8.596;2023-07-16T00:34:47;19.00;99.90
61253;DHT22;47127;47.516;8.596;2023-07-16T00:37:13;19.00;99.90
61253;DHT22;47127;47.516;8.596;2023-07-16T00:39:38;19.00;99.90
61253;DHT22;47127;47.516;8.596;2023-07-16T00:42:04;19.10;99.90
61253;DHT22;47127;47.516;8.596;2023-07-16T00:44:30;19.10;99.90
61253;DHT22;47127;47.516;8.596;2023-07-16T00:46:56;18.90;99.90
61253;DHT22;47127;47.516;8.596;2023-07-16T00:49:23;19.00;99.90
61253;DHT22;47127;47.516;8.596;2023-07-16T00:51:49;18.80;99.90
61253;DHT22;47127;47.516;8.596;2023-07-16T00:54:16;18.90;99.90
61253;DHT22;47127;47.516;8.596;2023-07-16T00:56:41;18.90;99.90
61253;DHT22;47127;47.516;8.596;2023-07-16T00:59:07;18.80;99.90
61253;DHT22;47127;47.516;8.596;2023-07-16T01:01:32;18.90;99.90
61253;DHT22;47127;47.516;8.596;2023-07-16T01:03:58;18.80;99.90
61253;DHT22;47127;47.516;8.596;2023-07-16T01:06:46;18.80;99.90
61253;DHT22;47127;47.516;8.596;2023-07-16T01:09:18;18.70;99.90
61253;DHT22;47127;47.516;8.596;2023-07-16T01:11:45;18.60;99.90
61253;DHT22;47127;47.516;8.596;2023-07-16T01:14:12;18.70;99.90
61253;DHT22;47127;47.516;8.596;2023-07-16T01:16:38;18.90;99.90
61253;DHT22;47127;47.516;8.596;2023-07-16T01:19:04;18.90;99.90
61253;DHT22;47127;47.516;8.596;2023-07-16T01:21:56;19.00;99.90
61253;DHT22;47127;47.516;8.596;2023-07-16T01:30:30;19.20;99.90
61253;DHT22;47127;47.516;8.596;2023-07-16T01:32:57;19.30;99.90
61253;DHT22;47127;47.516;8.596;2023-07-16T01:35:24;19.30;99.90
61253;DHT22;47127;47.516;8.596;2023-07-16T01:37:50;19.30;99.90
61253;DHT22;47127;47.516;8.596;2023-07-16T01:40:16;19.20;99.90
61253;DHT22;47127;47.516;8.596;2023-07-16T01:42:41;19.20;99.90
61253;DHT22;47127;47.516;8.596;2023-07-16T01:45:07;19.20;99.90
61253;DHT22;47127;47.516;8.596;2023-07-16T01:47:55;19.20;99.90
61253;DHT22;47127;47.516;8.596;2023-07-16T01:50:24;19.20;99.90
61253;DHT22;47127;47.516;8.596;2023-07-16T01:52:50;19.20;99.90
61253;DHT22;47127;47.516;8.596;2023-07-16T01:55:15;19.20;99.90
61253;DHT22;47127;47.516;8.596;2023-07-16T01:57:41;19.20;99.90
61253;DHT22;47127;47.516;8.596;2023-07-16T02:00:07;19.20;99.90
61253;DHT22;47127;47.516;8.596;2023-07-16T02:02:33;19.20;99.90
61253;DHT22;47127;47.516;8.596;2023-07-16T02:04:59;19.20;99.90
61253;DHT22;47127;47.516;8.596;2023-07-16T02:07:24;19.10;99.90
61253;DHT22;47127;47.516;8.596;2023-07-16T02:09:50;19.10;99.90
61253;DHT22;47127;47.516;8.596;2023-07-16T02:12:16;19.20;99.90
61253;DHT22;47127;47.516;8.596;2023-07-16T02:14:41;19.20;99.90
61253;DHT22;47127;47.516;8.596;2023-07-16T02:17:07;19.20;99.90
61253;DHT22;47127;47.516;8.596;2023-07-16T02:19:32;19.10;99.90
61253;DHT22;47127;47.516;8.596;2023-07-16T02:21:58;19.20;99.90
61253;DHT22;47127;47.516;8.596;2023-07-16T02:24:23;19.00;99.90
61253;DHT22;47127;47.516;8.596;2023-07-16T02:26:49;19.10;99.90
61253;DHT22;47127;47.516;8.596;2023-07-16T02:29:14;19.00;99.90
61253;DHT22;47127;47.516;8.596;2023-07-16T02:31:40;19.00;99.90
61253;DHT22;47127;47.516;8.596;2023-07-16T02:34:05;19.10;99.90
61253;DHT22;47127;47.516;8.596;2023-07-16T02:36:31;19.10;99.90
61253;DHT22;47127;47.516;8.596;2023-07-16T02:38:56;19.10;99.90
61253;DHT22;47127;47.516;8.596;2023-07-16T02:41:22;19.10;99.90
61253;DHT22;47127;47.516;8.596;2023-07-16T02:43:48;19.10;99.90
61253;DHT22;47127;47.516;8.596;2023-07-16T02:46:23;19.00;99.90
61253;DHT22;47127;47.516;8.596;2023-07-16T02:48:49;18.90;99.90
61253;DHT22;47127;47.516;8.596;2023-07-16T02:51:14;18.80;99.90
61253;DHT22;47127;47.516;8.596;2023-07-16T02:53:40;18.80;99.90
61253;DHT22;47127;47.516;8.596;2023-07-16T02:56:05;18.80;99.90
61253;DHT22;47127;47.516;8.596;2023-07-16T02:58:31;18.90;99.90
61253;DHT22;47127;47.516;8.596;2023-07-16T03:00:56;18.90;99.90
61253;DHT22;47127;47.516;8.596;2023-07-16T03:03:22;18.90;99.90
61253;DHT22;47127;47.516;8.596;2023-07-16T03:05:47;18.80;99.90
61253;DHT22;47127;47.516;8.596;2023-07-16T03:08:13;18.90;99.90
61253;DHT22;47127;47.516;8.596;2023-07-16T03:10:38;18.90;99.90
61253;DHT22;47127;47.516;8.596;2023-07-16T03:13:04;18.90;99.90
61253;DHT22;47127;47.516;8.596;2023-07-16T03:15:29;18.90;99.90
61253;DHT22;47127;47.516;8.596;2023-07-16T03:17:55;19.00;99.90
61253;DHT22;47127;47.516;8.596;2023-07-16T03:20:21;18.90;99.90
61253;DHT22;47127;47.516;8.596;2023-07-16T03:22:46;18.90;99.90
61253;DHT22;47127;47.516;8.596;2023-07-16T03:25:12;19.00;99.90
61253;DHT22;47127;47.516;8.596;2023-07-16T03:27:37;18.90;99.90
61253;DHT22;47127;47.516;8.596;2023-07-16T03:30:03;18.90;99.90
61253;DHT22;47127;47.516;8.596;2023-07-16T03:32:31;18.80;99.90
61253;DHT22;47127;47.516;8.596;2023-07-16T03:34:56;18.80;99.90
61253;DHT22;47127;47.516;8.596;2023-07-16T03:37:22;18.80;99.90
61253;DHT22;47127;47.516;8.596;2023-07-16T03:39:47;18.80;99.90
61253;DHT22;47127;47.516;8.596;2023-07-16T03:42:13;18.80;99.90
61253;DHT22;47127;47.516;8.596;2023-07-16T03:44:38;18.80;99.90
61253;DHT22;47127;47.516;8.596;2023-07-16T03:47:04;18.80;99.90
61253;DHT22;47127;47.516;8.596;2023-07-16T03:49:30;18.80;99.90
61253;DHT22;47127;47.516;8.596;2023-07-16T03:51:56;18.70;99.90
61253;DHT22;47127;47.516;8.596;2023-07-16T03:54:22;18.70;99.90
61253;DHT22;47127;47.516;8.596;2023-07-16T03:56:48;18.80;99.90
61253;DHT22;47127;47.516;8.596;2023-07-16T03:59:13;18.80;99.90
61253;DHT22;47127;47.516;8.596;2023-07-16T04:01:39;18.90;99.90
61253;DHT22;47127;47.516;8.596;2023-07-16T04:04:04;18.90;99.90
61253;DHT22;47127;47.516;8.596;2023-07-16T04:06:30;18.90;99.90
61253;DHT22;47127;47.516;8.596;2023-07-16T04:08:55;18.90;99.90
61253;DHT22;47127;47.516;8.596;2023-07-16T04:11:22;18.90;99.90
61253;DHT22;47127;47.516;8.596;2023-07-16T04:13:47;18.90;99.90
61253;DHT22;47127;47.516;8.596;2023-07-16T04:16:13;18.90;99.90
61253;DHT22;47127;47.516;8.596;2023-07-16T04:18:39;18.90;99.90
61253;DHT22;47127;47.516;8.596;2023-07-16T04:21:04;18.90;99.90
61253;DHT22;47127;47.516;8.596;2023-07-16T04:23:30;18.80;99.90
61253;DHT22;47127;47.516;8.596;2023-07-16T04:25:55;18.90;99.90
61253;DHT22;47127;47.516;8.596;2023-07-16T04:28:21;18.90;99.90
61253;DHT22;47127;47.516;8.596;2023-07-16T04:30:46;19.00;99.90
61253;DHT22;47127;47.516;8.596;2023-07-16T04:33:12;19.00;99.90
61253;DHT22;47127;47.516;8.596;2023-07-16T04:35:38;19.00;99.90
61253;DHT22;47127;47.516;8.596;2023-07-16T04:38:03;18.90;99.90
61253;DHT22;47127;47.516;8.596;2023-07-16T04:40:29;18.90;99.90
61253;DHT22;47127;47.516;8.596;2023-07-16T04:42:55;18.80;99.90
61253;DHT22;47127;47.516;8.596;2023-07-16T04:45:21;18.80;99.90
61253;DHT22;47127;47.516;8.596;2023-07-16T04:47:46;18.80;99.90
61253;DHT22;47127;47.516;8.596;2023-07-16T04:50:12;18.70;99.90
61253;DHT22;47127;47.516;8.596;2023-07-16T04:52:38;18.80;99.90
61253;DHT22;47127;47.516;8.596;2023-07-16T04:55:03;18.80;99.90
61253;DHT22;47127;47.516;8.596;2023-07-16T04:57:29;18.90;99.90
61253;DHT22;47127;47.516;8.596;2023-07-16T04:59:55;18.90;99.90
61253;DHT22;47127;47.516;8.596;2023-07-16T05:02:20;19.00;99.90
61253;DHT22;47127;47.516;8.596;2023-07-16T05:04:46;19.00;99.90
61253;DHT22;47127;47.516;8.596;2023-07-16T05:07:14;19.00;99.90
61253;DHT22;47127;47.516;8.596;2023-07-16T05:09:41;19.10;99.90
61253;DHT22;47127;47.516;8.596;2023-07-16T05:12:07;19.20;99.90
61253;DHT22;47127;47.516;8.596;2023-07-16T05:14:46;19.20;99.90
61253;DHT22;47127;47.516;8.596;2023-07-16T05:17:12;19.20;99.90
61253;DHT22;47127;47.516;8.596;2023-07-16T05:19:37;19.20;99.90
61253;DHT22;47127;47.516;8.596;2023-07-16T05:22:03;19.20;99.90
61253;DHT22;47127;47.516;8.596;2023-07-16T05:24:29;19.30;99.90
61253;DHT22;47127;47.516;8.596;2023-07-16T05:26:55;19.30;99.90
61253;DHT22;47127;47.516;8.596;2023-07-16T05:29:21;19.30;99.90
61253;DHT22;47127;47.516;8.596;2023-07-16T05:31:46;19.40;99.90
61253;DHT22;47127;47.516;8.596;2023-07-16T05:34:12;19.50;99.90
61253;DHT22;47127;47.516;8.596;2023-07-16T05:36:39;19.40;99.90
61253;DHT22;47127;47.516;8.596;2023-07-16T05:39:04;19.40;99.90
61253;DHT22;47127;47.516;8.596;2023-07-16T05:41:30;19.30;99.90
61253;DHT22;47127;47.516;8.596;2023-07-16T05:43:55;19.40;99.90
61253;DHT22;47127;47.516;8.596;2023-07-16T05:46:21;19.40;99.90
61253;DHT22;47127;47.516;8.596;2023-07-16T05:48:46;19.30;99.90
61253;DHT22;47127;47.516;8.596;2023-07-16T05:51:12;19.30;99.90
61253;DHT22;47127;47.516;8.596;2023-07-16T05:53:37;19.40;99.90
61253;DHT22;47127;47.516;8.596;2023-07-16T05:56:03;19.40;99.90
61253;DHT22;47127;47.516;8.596;2023-07-16T05:58:29;19.50;99.90
61253;DHT22;47127;47.516;8.596;2023-07-16T06:00:54;19.50;99.90
61253;DHT22;47127;47.516;8.596;2023-07-16T06:03:20;19.60;99.90
61253;DHT22;47127;47.516;8.596;2023-07-16T06:05:46;19.60;99.90
61253;DHT22;47127;47.516;8.596;2023-07-16T06:08:11;19.60;99.90
61253;DHT22;47127;47.516;8.596;2023-07-16T06:10:37;19.60;99.90
61253;DHT22;47127;47.516;8.596;2023-07-16T06:13:04;19.60;99.90
61253;DHT22;47127;47.516;8.596;2023-07-16T06:15:29;19.70;99.90
61253;DHT22;47127;47.516;8.596;2023-07-16T06:17:55;19.70;99.90
61253;DHT22;47127;47.516;8.596;2023-07-16T06:20:21;19.70;99.90
61253;DHT22;47127;47.516;8.596;2023-07-16T06:22:46;19.70;99.90
61253;DHT22;47127;47.516;8.596;2023-07-16T06:25:12;19.80;99.90
61253;DHT22;47127;47.516;8.596;2023-07-16T06:27:38;19.80;99.90
61253;DHT22;47127;47.516;8.596;2023-07-16T06:30:04;19.90;99.90
61253;DHT22;47127;47.516;8.596;2023-07-16T06:32:31;19.90;99.90
61253;DHT22;47127;47.516;8.596;2023-07-16T06:34:56;19.80;99.90
61253;DHT22;47127;47.516;8.596;2023-07-16T06:37:22;19.80;99.90
61253;DHT22;47127;47.516;8.596;2023-07-16T06:39:50;19.90;99.90
61253;DHT22;47127;47.516;8.596;2023-07-16T06:42:16;19.80;99.90
61253;DHT22;47127;47.516;8.596;2023-07-16T06:44:41;19.80;99.90
61253;DHT22;47127;47.516;8.596;2023-07-16T06:47:07;19.80;99.90
61253;DHT22;47127;47.516;8.596;2023-07-16T06:49:32;19.80;99.90
61253;DHT22;47127;47.516;8.596;2023-07-16T06:52:00;20.00;99.90
61253;DHT22;47127;47.516;8.596;2023-07-16T06:54:27;20.00;99.90
61253;DHT22;47127;47.516;8.596;2023-07-16T06:56:53;19.90;99.90
61253;DHT22;47127;47.516;8.596;2023-07-16T06:59:18;20.00;99.90
61253;DHT22;47127;47.516;8.596;2023-07-16T07:01:44;20.00;99.90
61253;DHT22;47127;47.516;8.596;2023-07-16T07:04:09;20.00;99.90
61253;DHT22;47127;47.516;8.596;2023-07-16T07:06:35;20.00;99.90
61253;DHT22;47127;47.516;8.596;2023-07-16T07:09:00;19.90;99.90
61253;DHT22;47127;47.516;8.596;2023-07-16T07:11:26;20.00;99.90
61253;DHT22;47127;47.516;8.596;2023-07-16T07:13:52;20.20;99.90
61253;DHT22;47127;47.516;8.596;2023-07-16T07:16:17;20.30;99.90
61253;DHT22;47127;47.516;8.596;2023-07-16T07:18:44;20.30;99.90
61253;DHT22;47127;47.516;8.596;2023-07-16T07:21:10;20.20;99.90
61253;DHT22;47127;47.516;8.596;2023-07-16T07:23:35;20.10;99.90
61253;DHT22;47127;47.516;8.596;2023-07-16T07:26:01;20.20;99.90
61253;DHT22;47127;47.516;8.596;2023-07-16T07:28:27;20.30;99.90
61253;DHT22;47127;47.516;8.596;2023-07-16T07:30:53;20.30;99.90
61253;DHT22;47127;47.516;8.596;2023-07-16T07:33:19;20.20;99.90
61253;DHT22;47127;47.516;8.596;2023-07-16T07:35:46;20.10;99.90
61253;DHT22;47127;47.516;8.596;2023-07-16T07:38:11;20.00;99.90
61253;DHT22;47127;47.516;8.596;2023-07-16T07:40:37;19.90;99.90
61253;DHT22;47127;47.516;8.596;2023-07-16T07:43:03;19.90;99.90
61253;DHT22;47127;47.516;8.596;2023-07-16T07:45:28;20.00;99.90
61253;DHT22;47127;47.516;8.596;2023-07-16T07:47:54;19.90;99.90
61253;DHT22;47127;47.516;8.596;2023-07-16T07:50:19;20.00;99.90
61253;DHT22;47127;47.516;8.596;2023-07-16T07:52:45;20.00;99.90
61253;DHT22;47127;47.516;8.596;2023-07-16T07:55:10;20.10;99.90
61253;DHT22;47127;47.516;8.596;2023-07-16T07:57:36;20.10;99.90
61253;DHT22;47127;47.516;8.596;2023-07-16T08:00:01;20.20;99.90
61253;DHT22;47127;47.516;8.596;2023-07-16T08:02:27;20.20;99.90
61253;DHT22;47127;47.516;8.596;2023-07-16T08:04:53;20.20;99.90
61253;DHT22;47127;47.516;8.596;2023-07-16T08:07:19;20.30;99.90
61253;DHT22;47127;47.516;8.596;2023-07-16T08:09:46;20.40;99.90
61253;DHT22;47127;47.516;8.596;2023-07-16T08:12:12;20.50;99.90
61253;DHT22;47127;47.516;8.596;2023-07-16T08:14:37;20.50;99.90
61253;DHT22;47127;47.516;8.596;2023-07-16T08:17:03;20.60;99.90
61253;DHT22;47127;47.516;8.596;2023-07-16T08:19:29;20.60;99.90
61253;DHT22;47127;47.516;8.596;2023-07-16T08:21:55;20.70;99.90
61253;DHT22;47127;47.516;8.596;2023-07-16T08:24:20;21.00;99.90
61253;DHT22;47127;47.516;8.596;2023-07-16T08:26:46;21.00;99.90
61253;DHT22;47127;47.516;8.596;2023-07-16T08:29:12;21.10;99.90
61253;DHT22;47127;47.516;8.596;2023-07-16T08:31:37;21.30;99.90
61253;DHT22;47127;47.516;8.596;2023-07-16T08:34:03;21.20;99.90
61253;DHT22;47127;47.516;8.596;2023-07-16T08:36:28;21.20;99.90
61253;DHT22;47127;47.516;8.596;2023-07-16T08:38:54;21.30;99.90
61253;DHT22;47127;47.516;8.596;2023-07-16T08:41:19;21.30;99.90
61253;DHT22;47127;47.516;8.596;2023-07-16T08:43:46;21.20;99.90
61253;DHT22;47127;47.516;8.596;2023-07-16T08:46:13;21.20;99.90
61253;DHT22;47127;47.516;8.596;2023-07-16T08:48:39;21.20;99.90
61253;DHT22;47127;47.516;8.596;2023-07-16T08:51:06;20.90;99.90
61253;DHT22;47127;47.516;8.596;2023-07-16T08:53:32;21.10;99.90
61253;DHT22;47127;47.516;8.596;2023-07-16T08:55:58;21.30;99.90
61253;DHT22;47127;47.516;8.596;2023-07-16T08:58:24;21.40;99.90
61253;DHT22;47127;47.516;8.596;2023-07-16T09:00:51;21.40;99.90
61253;DHT22;47127;47.516;8.596;2023-07-16T09:03:17;21.40;99.90
61253;DHT22;47127;47.516;8.596;2023-07-16T09:05:44;21.40;99.90
61253;DHT22;47127;47.516;8.596;2023-07-16T09:08:10;21.20;99.90
61253;DHT22;47127;47.516;8.596;2023-07-16T09:10:36;21.10;99.90
61253;DHT22;47127;47.516;8.596;2023-07-16T09:13:01;21.20;99.90
61253;DHT22;47127;47.516;8.596;2023-07-16T09:15:28;21.30;99.90
61253;DHT22;47127;47.516;8.596;2023-07-16T09:17:55;21.30;99.90
61253;DHT22;47127;47.516;8.596;2023-07-16T09:20:21;21.20;99.90
61253;DHT22;47127;47.516;8.596;2023-07-16T09:22:49;21.10;99.90
61253;DHT22;47127;47.516;8.596;2023-07-16T09:25:15;21.30;99.90
61253;DHT22;47127;47.516;8.596;2023-07-16T09:27:40;21.20;99.90
61253;DHT22;47127;47.516;8.596;2023-07-16T09:30:07;21.20;99.90
61253;DHT22;47127;47.516;8.596;2023-07-16T09:32:39;21.50;99.90
61253;DHT22;47127;47.516;8.596;2023-07-16T09:35:12;21.70;99.90
61253;DHT22;47127;47.516;8.596;2023-07-16T09:37:39;21.60;99.90
61253;DHT22;47127;47.516;8.596;2023-07-16T09:40:06;21.50;99.90
61253;DHT22;47127;47.516;8.596;2023-07-16T09:42:37;21.60;99.90
61253;DHT22;47127;47.516;8.596;2023-07-16T09:45:05;21.60;99.90
61253;DHT22;47127;47.516;8.596;2023-07-16T09:47:30;21.90;99.90
61253;DHT22;47127;47.516;8.596;2023-07-16T09:49:56;21.90;99.90
61253;DHT22;47127;47.516;8.596;2023-07-16T09:52:22;21.70;99.90
61253;DHT22;47127;47.516;8.596;2023-07-16T09:54:51;21.70;99.90
61253;DHT22;47127;47.516;8.596;2023-07-16T09:57:18;21.60;99.90
61253;DHT22;47127;47.516;8.596;2023-07-16T09:59:44;21.50;99.90
61253;DHT22;47127;47.516;8.596;2023-07-16T10:02:12;21.50;99.90
61253;DHT22;47127;47.516;8.596;2023-07-16T10:04:40;21.50;99.90
61253;DHT22;47127;47.516;8.596;2023-07-16T10:07:06;21.50;99.90
61253;DHT22;47127;47.516;8.596;2023-07-16T10:09:57;21.40;99.90
61253;DHT22;47127;47.516;8.596;2023-07-16T10:12:24;21.40;99.90
61253;DHT22;47127;47.516;8.596;2023-07-16T10:14:52;21.50;99.90
61253;DHT22;47127;47.516;8.596;2023-07-16T10:17:20;21.80;99.90
61253;DHT22;47127;47.516;8.596;2023-07-16T10:19:49;21.90;99.90
61253;DHT22;47127;47.516;8.596;2023-07-16T10:22:15;21.90;99.90
61253;DHT22;47127;47.516;8.596;2023-07-16T10:24:41;21.80;99.90
61253;DHT22;47127;47.516;8.596;2023-07-16T10:27:07;21.90;99.90
61253;DHT22;47127;47.516;8.596;2023-07-16T10:29:32;21.90;99.90
61253;DHT22;47127;47.516;8.596;2023-07-16T10:31:58;21.80;99.90
61253;DHT22;47127;47.516;8.596;2023-07-16T10:34:24;21.90;99.90
61253;DHT22;47127;47.516;8.596;2023-07-16T10:36:51;22.10;99.90
61253;DHT22;47127;47.516;8.596;2023-07-16T10:39:17;22.40;99.90
61253;DHT22;47127;47.516;8.596;2023-07-16T10:41:42;22.30;99.90
61253;DHT22;47127;47.516;8.596;2023-07-16T10:44:08;22.20;99.90
61253;DHT22;47127;47.516;8.596;2023-07-16T10:46:36;22.30;99.90
61253;DHT22;47127;47.516;8.596;2023-07-16T10:49:01;22.60;99.90
61253;DHT22;47127;47.516;8.596;2023-07-16T10:51:27;22.70;99.90
61253;DHT22;47127;47.516;8.596;2023-07-16T10:53:55;22.80;99.90
61253;DHT22;47127;47.516;8.596;2023-07-16T10:56:21;22.70;99.90
61253;DHT22;47127;47.516;8.596;2023-07-16T10:58:47;22.70;99.90
61253;DHT22;47127;47.516;8.596;2023-07-16T11:01:13;22.70;99.90
61253;DHT22;47127;47.516;8.596;2023-07-16T11:03:39;22.90;99.90
61253;DHT22;47127;47.516;8.596;2023-07-16T11:06:09;22.90;99.90
61253;DHT22;47127;47.516;8.596;2023-07-16T11:08:35;22.90;99.90
61253;DHT22;47127;47.516;8.596;2023-07-16T11:11:00;23.00;99.90
61253;DHT22;47127;47.516;8.596;2023-07-16T11:13:31;22.80;99.90
61253;DHT22;47127;47.516;8.596;2023-07-16T11:16:06;22.80;99.90
61253;DHT22;47127;47.516;8.596;2023-07-16T11:18:31;22.70;99.90
61253;DHT22;47127;47.516;8.596;2023-07-16T11:20:58;22.70;99.90
61253;DHT22;47127;47.516;8.596;2023-07-16T11:23:24;22.80;99.90
61253;DHT22;47127;47.516;8.596;2023-07-16T11:25:52;22.80;99.90
61253;DHT22;47127;47.516;8.596;2023-07-16T11:28:17;22.90;99.90
61253;DHT22;47127;47.516;8.596;2023-07-16T11:30:43;22.80;99.90
61253;DHT22;47127;47.516;8.596;2023-07-16T11:33:12;22.70;99.90
61253;DHT22;47127;47.516;8.596;2023-07-16T11:35:38;22.60;99.90
61253;DHT22;47127;47.516;8.596;2023-07-16T11:38:05;22.50;99.90
61253;DHT22;47127;47.516;8.596;2023-07-16T11:40:34;22.70;99.90
61253;DHT22;47127;47.516;8.596;2023-07-16T11:43:09;22.80;99.90
61253;DHT22;47127;47.516;8.596;2023-07-16T11:45:35;22.90;99.90
61253;DHT22;47127;47.516;8.596;2023-07-16T11:48:01;22.90;99.90
61253;DHT22;47127;47.516;8.596;2023-07-16T11:50:28;22.90;99.90
61253;DHT22;47127;47.516;8.596;2023-07-16T11:52:55;22.90;99.90
61253;DHT22;47127;47.516;8.596;2023-07-16T11:55:21;23.10;99.90
61253;DHT22;47127;47.516;8.596;2023-07-16T11:57:47;23.00;99.90
61253;DHT22;47127;47.516;8.596;2023-07-16T12:00:13;23.20;99.90
61253;DHT22;47127;47.516;8.596;2023-07-16T12:02:38;23.20;99.90
61253;DHT22;47127;47.516;8.596;2023-07-16T12:05:04;23.40;99.90
61253;DHT22;47127;47.516;8.596;2023-07-16T12:07:32;23.80;99.90
61253;DHT22;47127;47.516;8.596;2023-07-16T12:09:58;23.90;99.90
61253;DHT22;47127;47.516;8.596;2023-07-16T12:12:23;23.70;99.90
61253;DHT22;47127;47.516;8.596;2023-07-16T12:14:49;23.60;99.90
61253;DHT22;47127;47.516;8.596;2023-07-16T12:17:14;23.90;99.90
61253;DHT22;47127;47.516;8.596;2023-07-16T12:19:40;23.90;99.90
61253;DHT22;47127;47.516;8.596;2023-07-16T12:22:05;23.80;99.90
61253;DHT22;47127;47.516;8.596;2023-07-16T12:24:31;23.60;99.90
61253;DHT22;47127;47.516;8.596;2023-07-16T12:26:56;23.50;99.90
61253;DHT22;47127;47.516;8.596;2023-07-16T12:29:22;23.50;99.90
61253;DHT22;47127;47.516;8.596;2023-07-16T12:31:49;23.60;99.90
61253;DHT22;47127;47.516;8.596;2023-07-16T12:34:14;23.80;99.90
61253;DHT22;47127;47.516;8.596;2023-07-16T12:36:40;23.60;99.90
61253;DHT22;47127;47.516;8.596;2023-07-16T12:39:05;23.50;99.90
61253;DHT22;47127;47.516;8.596;2023-07-16T12:41:31;23.40;99.90
61253;DHT22;47127;47.516;8.596;2023-07-16T12:43:56;23.60;99.90
61253;DHT22;47127;47.516;8.596;2023-07-16T12:46:22;23.60;99.90
61253;DHT22;47127;47.516;8.596;2023-07-16T12:48:47;23.70;99.90
61253;DHT22;47127;47.516;8.596;2023-07-16T12:51:13;24.00;99.90
61253;DHT22;47127;47.516;8.596;2023-07-16T12:53:38;24.00;99.90
61253;DHT22;47127;47.516;8.596;2023-07-16T12:56:05;24.20;99.90
61253;DHT22;47127;47.516;8.596;2023-07-16T12:58:30;24.10;99.90
61253;DHT22;47127;47.516;8.596;2023-07-16T13:00:56;24.40;99.90
61253;DHT22;47127;47.516;8.596;2023-07-16T13:03:21;24.60;99.90
61253;DHT22;47127;47.516;8.596;2023-07-16T13:05:47;24.70;99.90
61253;DHT22;47127;47.516;8.596;2023-07-16T13:08:12;24.80;99.70
61253;DHT22;47127;47.516;8.596;2023-07-16T13:10:39;24.70;99.70
61253;DHT22;47127;47.516;8.596;2023-07-16T13:13:05;24.50;99.60
61253;DHT22;47127;47.516;8.596;2023-07-16T13:15:32;24.70;99.60
61253;DHT22;47127;47.516;8.596;2023-07-16T13:17:57;25.10;99.70
61253;DHT22;47127;47.516;8.596;2023-07-16T13:20:23;25.20;99.40
61253;DHT22;47127;47.516;8.596;2023-07-16T13:22:49;25.20;99.20
61253;DHT22;47127;47.516;8.596;2023-07-16T13:25:14;25.50;99.00
61253;DHT22;47127;47.516;8.596;2023-07-16T13:27:40;25.30;99.10
61253;DHT22;47127;47.516;8.596;2023-07-16T13:30:06;25.60;99.00
61253;DHT22;47127;47.516;8.596;2023-07-16T13:32:32;26.10;98.90
61253;DHT22;47127;47.516;8.596;2023-07-16T13:34:58;26.30;98.10
61253;DHT22;47127;47.516;8.596;2023-07-16T13:37:23;26.10;98.20
61253;DHT22;47127;47.516;8.596;2023-07-16T13:39:49;26.00;98.30
61253;DHT22;47127;47.516;8.596;2023-07-16T13:42:14;26.20;98.00
61253;DHT22;47127;47.516;8.596;2023-07-16T13:44:40;26.10;98.00
61253;DHT22;47127;47.516;8.596;2023-07-16T13:47:05;26.00;97.90
61253;DHT22;47127;47.516;8.596;2023-07-16T13:49:31;25.60;98.40
61253;DHT22;47127;47.516;8.596;2023-07-16T13:51:56;25.80;98.10
61253;DHT22;47127;47.516;8.596;2023-07-16T13:54:22;26.00;98.10
61253;DHT22;47127;47.516;8.596;2023-07-16T13:56:48;26.20;97.60
61253;DHT22;47127;47.516;8.596;2023-07-16T13:59:14;26.70;97.40
61253;DHT22;47127;47.516;8.596;2023-07-16T14:01:40;26.70;97.30
61253;DHT22;47127;47.516;8.596;2023-07-16T14:04:06;26.80;97.10
61253;DHT22;47127;47.516;8.596;2023-07-16T14:06:32;27.00;96.70
61253;DHT22;47127;47.516;8.596;2023-07-16T14:08:58;27.40;96.20
61253;DHT22;47127;47.516;8.596;2023-07-16T14:11:24;27.40;96.00
61253;DHT22;47127;47.516;8.596;2023-07-16T14:13:49;27.40;95.90
61253;DHT22;47127;47.516;8.596;2023-07-16T14:16:17;27.50;95.50
61253;DHT22;47127;47.516;8.596;2023-07-16T14:18:43;27.50;95.60
61253;DHT22;47127;47.516;8.596;2023-07-16T14:21:08;26.90;96.00
61253;DHT22;47127;47.516;8.596;2023-07-16T14:23:34;26.90;96.20
61253;DHT22;47127;47.516;8.596;2023-07-16T14:25:59;27.20;95.90
61253;DHT22;47127;47.516;8.596;2023-07-16T14:28:25;27.40;95.10
61253;DHT22;47127;47.516;8.596;2023-07-16T14:30:50;27.50;95.30
61253;DHT22;47127;47.516;8.596;2023-07-16T14:33:16;27.90;94.70
61253;DHT22;47127;47.516;8.596;2023-07-16T14:35:42;28.30;93.90
61253;DHT22;47127;47.516;8.596;2023-07-16T14:38:07;27.80;95.80
61253;DHT22;47127;47.516;8.596;2023-07-16T14:40:33;28.10;94.20
61253;DHT22;47127;47.516;8.596;2023-07-16T14:42:58;28.30;93.50
61253;DHT22;47127;47.516;8.596;2023-07-16T14:45:24;28.60;93.40
61253;DHT22;47127;47.516;8.596;2023-07-16T14:47:50;28.50;93.20
61253;DHT22;47127;47.516;8.596;2023-07-16T14:50:15;28.60;93.60
61253;DHT22;47127;47.516;8.596;2023-07-16T14:52:41;28.90;93.00
61253;DHT22;47127;47.516;8.596;2023-07-16T14:55:07;28.90;92.80
61253;DHT22;47127;47.516;8.596;2023-07-16T14:57:33;28.70;92.50
61253;DHT22;47127;47.516;8.596;2023-07-16T14:59:59;28.50;92.30
61253;DHT22;47127;47.516;8.596;2023-07-16T15:02:25;28.80;91.90
61253;DHT22;47127;47.516;8.596;2023-07-16T15:04:51;28.70;91.80
61253;DHT22;47127;47.516;8.596;2023-07-16T15:07:16;28.70;92.10
61253;DHT22;47127;47.516;8.596;2023-07-16T15:09:42;28.60;92.20
61253;DHT22;47127;47.516;8.596;2023-07-16T15:12:08;28.60;91.80
61253;DHT22;47127;47.516;8.596;2023-07-16T15:14:34;28.50;92.00
61253;DHT22;47127;47.516;8.596;2023-07-16T15:17:00;28.30;92.10
61253;DHT22;47127;47.516;8.596;2023-07-16T15:19:25;28.40;92.80
61253;DHT22;47127;47.516;8.596;2023-07-16T15:21:51;28.70;91.80
61253;DHT22;47127;47.516;8.596;2023-07-16T15:24:16;28.60;92.00
61253;DHT22;47127;47.516;8.596;2023-07-16T15:26:42;28.80;92.00
61253;DHT22;47127;47.516;8.596;2023-07-16T15:29:08;28.70;91.90